NCAR-RAP Real-Time Weather Data

Output produced by METARs form (06 May 2021  15:27 UTC)
found at http://weather.rap.ucar.edu/surface/
 
KONT 061518Z 00000KT 4SM HZ OVC010 16/13 A3004 RMK AO2 T01560128
KONT 061453Z 36003KT 3SM HZ OVC009 16/13 A3004 RMK AO2 SLP162 VIS NW 2 T01560128 53018
KONT 061411Z 19003KT 3SM HZ OVC008 15/12 A3003 RMK AO2 VIS NW 2 T01500122 $
KONT 061353Z 00000KT 3SM HZ OVC007 15/12 A3002 RMK AO2 SLP154 VIS NW 2 T01500122 $
KONT 061253Z 00000KT 5SM BR OVC006 14/12 A3000 RMK AO2 SLP146 T01440122 $
KONT 061153Z 27006KT 5SM BR OVC007 14/12 A2998 RMK AO2 SLP141 T01390122 10172 20139 55003 $
KONT 061127Z 24004KT 6SM BR BKN006 14/12 A2998 RMK AO2 T01390122 $
KONT 061053Z 27005KT 6SM BR FEW009 14/12 A2997 RMK AO2 SLP138 T01390117 $
KONT 060953Z 25004KT 8SM CLR 15/12 A2998 RMK AO2 SLP137 T01500122 $
KONT 060853Z 26004KT 8SM CLR 15/12 A2999 RMK AO2 SLP143 T01500122 58004
KONT 060753Z 25005KT 10SM CLR 16/12 A3001 RMK AO2 SLP148 T01560122 403280150
KONT 060653Z 27007KT 10SM CLR 17/12 A3001 RMK AO2 SLP148 T01670117
KONT 060553Z 27008KT 10SM CLR 17/12 A3001 RMK AO2 SLP147 T01720122 10306 20172 51023
KONT 060453Z 25008KT 10SM FEW250 18/12 A3000 RMK AO2 SLP146 T01830117
KONT 060353Z 23005KT 10SM CLR 20/12 A2997 RMK AO2 SLP137 T02000117
KONT 060253Z 25010KT 9SM SCT250 23/12 A2993 RMK AO2 SLP125 HAZY T02280122 53013